Time;durP1;ratioP1;P1;durP2;ratioP2;P2;SDS_P1;SDS_P2;PMS_P1;PMS_P2;Temp;Humidity;BMP_temperature;BMP_pressure;BME280_temperature;BME280_humidity;BME280_pressure;Samples;Min_cycle;Max_cycle;Signal;HPM_P1;HPM_P2
2023/11/17 00:01:57;;;;;;;10.80;6.38;;;;;;;6.13;100.00;100781.59;5010760;28;20480;-78
2023/11/17 00:04:23;;;;;;;10.35;5.93;;;;;;;6.07;100.00;100776.09;5010665;28;20041;-73
2023/11/17 00:06:48;;;;;;;8.90;6.00;;;;;;;5.98;100.00;100779.91;5010563;28;20018;-74
2023/11/17 00:09:15;;;;;;;9.00;5.22;;;;;;;5.78;100.00;100777.75;5010336;28;20026;-74
2023/11/17 00:11:41;;;;;;;10.38;5.82;;;;;;;5.19;100.00;100699.91;5010186;28;20037;-74
2023/11/17 00:14:07;;;;;;;12.05;5.45;;;;;;;5.57;100.00;100752.63;5009221;28;20026;-79
2023/11/17 00:16:33;;;;;;;14.13;6.60;;;;;;;5.84;100.00;100793.50;5010327;28;20491;-74
2023/11/17 00:19:00;;;;;;;10.55;5.78;;;;;;;5.99;100.00;100789.38;5010262;28;20041;-74
2023/11/17 00:21:26;;;;;;;9.13;5.07;;;;;;;5.95;100.00;100792.47;5010574;28;20156;-78
2023/11/17 00:23:51;;;;;;;9.95;5.50;;;;;;;5.38;100.00;100701.06;5010360;28;20116;-73
2023/11/17 00:26:17;;;;;;;10.40;5.50;;;;;;;5.89;100.00;100799.78;5010307;28;20461;-74
2023/11/17 00:28:43;;;;;;;14.82;5.85;;;;;;;5.58;100.00;100763.72;5010216;28;20026;-74
2023/11/17 00:31:10;;;;;;;9.25;5.70;;;;;;;5.59;100.00;100773.19;5010425;28;20037;-76
2023/11/17 00:33:39;;;;;;;12.98;5.40;;;;;;;5.49;100.00;100781.97;5010179;28;20392;-77
2023/11/17 00:36:06;;;;;;;19.08;5.63;;;;;;;5.46;100.00;100775.00;5013325;28;20093;-72
2023/11/17 00:38:32;;;;;;;13.85;5.90;;;;;;;5.57;100.00;100787.56;5011690;28;20056;-74
2023/11/17 00:40:59;;;;;;;13.25;5.47;;;;;;;5.34;100.00;100739.25;5013748;28;20040;-74
2023/11/17 00:43:26;;;;;;;19.10;5.85;;;;;;;5.63;100.00;100783.72;5014030;28;20037;-74
2023/11/17 00:45:57;;;;;;;15.82;6.00;;;;;;;5.59;100.00;100778.31;5013666;28;20491;-74
2023/11/17 00:48:27;;;;;;;10.30;5.47;;;;;;;5.63;100.00;100770.94;5013888;28;20044;-74
2023/11/17 00:50:53;;;;;;;12.98;5.55;;;;;;;5.53;100.00;100740.38;5013790;28;20041;-79
2023/11/17 00:53:23;;;;;;;13.93;5.00;;;;;;;5.02;100.00;100642.56;5013645;28;20026;-72
2023/11/17 00:55:55;;;;;;;12.32;5.63;;;;;;;5.74;100.00;100753.63;5028970;28;20030;-73
2023/11/17 00:58:21;;;;;;;11.52;5.10;;;;;;;5.90;100.00;100744.31;5013724;28;20515;-73
2023/11/17 01:00:46;;;;;;;9.38;4.97;;;;;;;5.44;100.00;100640.84;5013762;28;20033;-74
2023/11/17 01:03:12;;;;;;;10.55;5.00;;;;;;;6.21;100.00;100744.50;5013389;28;20029;-74
2023/11/17 01:05:38;;;;;;;8.18;4.95;;;;;;;6.27;100.00;100744.84;5013352;28;20030;-78
2023/11/17 01:08:04;;;;;;;14.52;5.25;;;;;;;5.69;100.00;100644.00;5012389;28;20121;-74
2023/11/17 01:10:30;;;;;;;11.20;5.47;;;;;;;6.16;100.00;100730.53;5027498;28;20073;-74
2023/11/17 01:12:56;;;;;;;11.52;5.38;;;;;;;5.93;100.00;100706.06;5013164;28;20053;-74
2023/11/17 01:15:21;;;;;;;11.00;6.13;;;;;;;5.85;100.00;100717.53;5013353;28;20477;-74
2023/11/17 01:17:47;;;;;;;11.05;5.45;;;;;;;5.73;100.00;100718.59;5012749;28;20037;-74
2023/11/17 01:20:12;;;;;;;9.38;5.05;;;;;;;5.82;100.00;100715.69;5028027;28;20030;-74
2023/11/17 01:22:41;;;;;;;10.35;5.10;;;;;;;5.79;100.00;100698.41;5013196;28;20159;-74
2023/11/17 01:25:07;;;;;;;13.07;5.38;;;;;;;5.62;100.00;100705.13;5013018;28;20061;-74
2023/11/17 01:27:32;;;;;;;11.57;5.18;;;;;;;5.66;100.00;100693.38;5012913;28;20484;-79
2023/11/17 01:29:58;;;;;;;8.93;5.70;;;;;;;5.67;100.00;100703.72;5012946;28;20033;-74
2023/11/17 01:32:23;;;;;;;12.35;5.68;;;;;;;5.57;100.00;100697.94;5012828;28;20087;-74
2023/11/17 01:34:49;;;;;;;12.40;5.68;;;;;;;5.40;100.00;100681.56;5010320;28;20126;-74
2023/11/17 01:37:15;;;;;;;13.98;6.03;;;;;;;5.44;100.00;100692.06;5013116;28;20045;-74
2023/11/17 01:39:40;;;;;;;13.20;5.85;;;;;;;5.60;100.00;100681.06;5012927;28;20079;-74
2023/11/17 01:42:06;;;;;;;14.32;6.25;;;;;;;5.60;100.00;100657.16;5012953;28;20500;-74
2023/11/17 01:44:31;;;;;;;10.55;5.43;;;;;;;5.87;100.00;100669.81;5012925;28;20404;-72
2023/11/17 01:46:58;;;;;;;12.02;5.20;;;;;;;5.73;100.00;100625.47;5012097;28;20404;-74
2023/11/17 01:49:23;;;;;;;12.13;6.18;;;;;;;5.99;100.00;100643.28;5012413;28;20030;-74
2023/11/17 01:51:52;;;;;;;12.38;6.03;;;;;;;6.22;100.00;100669.34;5012689;28;20030;-74
2023/11/17 01:54:18;;;;;;;11.07;6.30;;;;;;;5.53;100.00;100556.00;5012694;28;20076;-75
2023/11/17 01:56:45;;;;;;;11.43;5.28;;;;;;;6.20;100.00;100675.19;5012435;28;20088;-77
2023/11/17 01:59:10;;;;;;;13.52;6.22;;;;;;;6.23;100.00;100677.91;5012353;28;20416;-73
2023/11/17 02:01:36;;;;;;;15.02;6.45;;;;;;;5.70;100.00;100581.75;5012615;28;20034;-74
2023/11/17 02:04:02;;;;;;;11.15;6.25;;;;;;;6.26;100.00;100671.28;5012502;28;20040;-74
2023/11/17 02:07:01;;;;;;;13.05;5.75;;;;;;;6.40;100.00;100663.50;5012507;28;20041;-75
2023/11/17 02:09:32;;;;;;;12.98;6.75;;;;;;;5.94;100.00;100570.34;5009716;28;20124;-74
2023/11/17 02:12:16;;;;;;;12.40;6.38;;;;;;;5.85;100.00;100574.94;5009840;28;20030;-74
2023/11/17 02:14:47;;;;;;;9.43;6.22;;;;;;;6.36;100.00;100657.31;5009634;28;20038;-75
2023/11/17 02:17:15;;;;;;;10.82;6.00;;;;;;;6.34;100.00;100647.78;5009623;28;20597;-74
2023/11/17 02:19:43;;;;;;;11.57;5.82;;;;;;;6.37;100.00;100659.09;5009458;28;20049;-74
2023/11/17 02:22:21;;;;;;;12.57;6.57;;;;;;;6.17;100.00;100659.63;5009481;28;20123;-74
2023/11/17 02:25:10;;;;;;;12.18;5.30;;;;;;;5.98;100.00;100649.19;5009417;28;20029;-72
2023/11/17 02:28:10;;;;;;;12.73;5.70;;;;;;;5.42;100.00;100550.28;4977315;28;20073;-75
2023/11/17 02:30:39;;;;;;;12.38;6.07;;;;;;;5.99;100.00;100630.47;5009394;28;20519;-74
2023/11/17 02:33:08;;;;;;;11.15;6.18;;;;;;;5.97;100.00;100632.03;5009524;28;20433;-73
2023/11/17 02:35:34;;;;;;;10.50;6.05;;;;;;;5.94;100.00;100633.50;5009172;28;20061;-76
2023/11/17 02:38:05;;;;;;;12.43;6.63;;;;;;;5.69;100.00;100608.16;5009126;28;20030;-74
2023/11/17 02:40:31;;;;;;;13.07;6.43;;;;;;;5.80;100.00;100648.09;5009211;28;20030;-74
2023/11/17 02:43:00;;;;;;;9.63;6.30;;;;;;;5.48;100.00;100616.31;5009330;28;20411;-74
2023/11/17 02:45:25;;;;;;;16.92;8.02;;;;;;;5.41;100.00;100609.97;5009610;28;20504;-74
2023/11/17 02:47:57;;;;;;;15.68;7.22;;;;;;;5.11;100.00;100550.09;5011689;28;20022;-73
2023/11/17 02:50:31;;;;;;;11.23;6.25;;;;;;;5.45;100.00;100606.78;5011689;28;20040;-74
2023/11/17 02:53:23;;;;;;;13.48;6.45;;;;;;;5.47;100.00;100623.13;5011513;28;20113;-74
2023/11/17 02:55:51;;;;;;;13.88;6.43;;;;;;;5.45;100.00;100618.72;5011152;28;20484;-74
2023/11/17 02:58:18;;;;;;;12.88;6.00;;;;;;;4.81;100.00;100510.00;5010401;28;20033;-74
2023/11/17 03:00:47;;;;;;;11.48;6.53;;;;;;;5.31;100.00;100623.88;5011414;28;20052;-74
2023/11/17 03:03:12;;;;;;;12.20;6.30;;;;;;;5.23;100.00;100590.94;5011590;28;20044;-74
2023/11/17 03:05:38;;;;;;;10.18;6.20;;;;;;;5.54;100.00;100606.44;5011508;28;20480;-72
2023/11/17 03:08:03;;;;;;;10.07;6.07;;;;;;;5.16;100.00;100502.66;5011282;28;20024;-74
2023/11/17 03:10:29;;;;;;;9.38;5.97;;;;;;;5.81;100.00;100596.06;5011007;28;20080;-74
2023/11/17 03:12:57;;;;;;;13.38;6.97;;;;;;;5.96;100.00;100608.88;5011026;28;20064;-74
2023/11/17 03:15:23;;;;;;;8.05;5.53;;;;;;;5.78;100.00;100565.13;5010997;28;20057;-74
2023/11/17 03:17:51;;;;;;;9.82;6.68;;;;;;;5.77;100.00;100558.22;5011067;28;20032;-74
2023/11/17 03:20:17;;;;;;;13.35;6.28;;;;;;;6.21;100.00;100598.38;5011194;28;20080;-74
2023/11/17 03:22:44;;;;;;;12.30;6.70;;;;;;;6.26;100.00;100576.44;5007686;28;20034;-73
2023/11/17 03:25:17;;;;;;;11.15;6.65;;;;;;;6.43;100.00;100586.75;5010625;28;20068;-73
2023/11/17 03:27:50;;;;;;;10.43;6.22;;;;;;;5.85;100.00;100467.31;5010837;28;20488;-74
2023/11/17 03:30:17;;;;;;;11.88;6.40;;;;;;;6.47;100.00;100568.19;5010759;28;20072;-72
2023/11/17 03:32:47;;;;;;;9.95;6.22;;;;;;;5.93;100.00;100472.88;5010752;28;20022;-74
2023/11/17 03:35:13;;;;;;;9.95;5.47;;;;;;;6.12;100.00;100523.53;5010881;28;20054;-74
2023/11/17 03:37:38;;;;;;;9.85;5.93;;;;;;;5.95;100.00;100520.84;5010548;28;20036;-75
2023/11/17 03:40:15;;;;;;;11.70;5.63;;;;;;;5.83;100.00;100522.72;5010515;28;20112;-74
2023/11/17 03:42:40;;;;;;;10.73;6.00;;;;;;;5.66;100.00;100507.28;5011095;28;20061;-74
2023/11/17 03:45:07;;;;;;;17.40;7.90;;;;;;;5.94;100.00;100526.78;5010585;28;20049;-75
2023/11/17 03:47:36;;;;;;;11.95;6.35;;;;;;;5.92;100.00;100500.19;5010436;28;20037;-78
2023/11/17 03:50:05;;;;;;;11.68;6.20;;;;;;;6.19;100.00;100528.16;5010546;28;20057;-74
2023/11/17 03:52:35;;;;;;;12.30;5.57;;;;;;;6.17;100.00;100506.72;5010415;28;20025;-75
2023/11/17 03:55:00;;;;;;;9.65;5.90;;;;;;;6.24;100.00;100518.19;5010494;28;20033;-74
2023/11/17 03:57:29;;;;;;;10.45;5.40;;;;;;;6.14;100.00;100521.91;5010699;28;20469;-74
2023/11/17 03:59:57;;;;;;;11.40;6.20;;;;;;;5.60;100.00;100491.56;5010513;28;20026;-73
2023/11/17 04:02:22;;;;;;;9.02;5.93;;;;;;;5.77;100.00;100530.03;5010649;28;20038;-74
2023/11/17 04:04:51;;;;;;;11.18;5.88;;;;;;;5.77;100.00;100518.13;5010444;28;20511;-74
2023/11/17 04:07:36;;;;;;;11.73;6.10;;;;;;;5.90;100.00;100529.97;5010374;28;20488;-75
2023/11/17 04:10:01;;;;;;;11.18;6.47;;;;;;;5.77;100.00;100537.72;5010828;28;20046;-73
2023/11/17 04:12:29;;;;;;;10.70;6.45;;;;;;;5.54;100.00;100475.84;5012115;28;20065;-74
2023/11/17 04:14:54;;;;;;;12.32;6.05;;;;;;;5.70;100.00;100526.25;5011910;28;20124;-74
2023/11/17 04:17:20;;;;;;;24.98;6.63;;;;;;;5.34;100.00;100449.97;5011669;28;20033;-74
2023/11/17 04:19:47;;;;;;;18.95;6.45;;;;;;;5.57;100.00;100488.84;5011728;28;20042;-74
2023/11/17 04:22:12;;;;;;;10.68;5.70;;;;;;;5.76;100.00;100508.69;5011891;28;20037;-75
2023/11/17 04:24:38;;;;;;;10.73;5.78;;;;;;;5.71;100.00;100511.75;5011861;28;20439;-74
2023/11/17 04:27:04;;;;;;;11.32;5.13;;;;;;;5.76;100.00;100526.63;5011890;28;20026;-74
2023/11/17 04:29:30;;;;;;;12.02;5.55;;;;;;;5.79;100.00;100513.97;5011757;28;20116;-74
2023/11/17 04:31:56;;;;;;;11.20;5.90;;;;;;;5.83;100.00;100505.69;5011352;28;20534;-74
2023/11/17 04:34:22;;;;;;;20.95;5.70;;;;;;;5.78;100.00;100480.59;5011578;28;20073;-74
2023/11/17 04:36:48;;;;;;;10.65;5.20;;;;;;;5.95;100.00;100490.09;5012465;28;20462;-73
2023/11/17 04:39:17;;;;;;;12.15;6.22;;;;;;;5.97;100.00;100483.38;4995126;28;20038;-74
2023/11/17 04:41:47;;;;;;;10.57;5.72;;;;;;;6.03;100.00;100480.31;4991221;28;20034;-74
2023/11/17 04:44:13;;;;;;;9.30;5.75;;;;;;;5.64;100.00;100415.78;5013836;28;20026;-73
2023/11/17 04:46:38;;;;;;;8.75;5.43;;;;;;;6.07;100.00;100483.91;5013595;28;20025;-74
2023/11/17 04:49:04;;;;;;;8.90;4.70;;;;;;;5.91;100.00;100487.31;5013998;28;20057;-73
2023/11/17 04:51:29;;;;;;;8.82;5.05;;;;;;;5.69;100.00;100480.94;5013885;28;20104;-71
2023/11/17 04:53:55;;;;;;;9.25;5.07;;;;;;;5.67;100.00;100472.31;5013644;28;20037;-72
2023/11/17 04:56:20;;;;;;;11.55;5.00;;;;;;;5.61;100.00;100472.84;5013610;28;20029;-71
2023/11/17 04:58:45;;;;;;;10.30;4.97;;;;;;;5.58;100.00;100482.91;5013572;28;20131;-73
2023/11/17 05:01:14;;;;;;;10.75;4.85;;;;;;;5.31;100.00;100460.03;5013581;28;20021;-72
2023/11/17 05:03:40;;;;;;;10.03;4.80;;;;;;;5.17;100.00;100466.03;5044420;28;20416;-71
2023/11/17 05:06:08;;;;;;;11.15;5.30;;;;;;;5.32;100.00;100483.94;5013637;28;20018;-74
2023/11/17 05:08:36;;;;;;;10.88;5.53;;;;;;;5.24;100.00;100459.59;5024387;28;20061;-74
2023/11/17 05:11:01;;;;;;;9.65;4.72;;;;;;;5.37;100.00;100471.44;5024786;28;20377;-77
2023/11/17 05:13:27;;;;;;;8.75;5.05;;;;;;;5.34;100.00;100451.66;5028108;28;20033;-74
2023/11/17 05:15:52;;;;;;;11.32;4.57;;;;;;;5.54;100.00;100459.59;5012366;28;20037;-73
2023/11/17 05:18:19;;;;;;;7.82;4.72;;;;;;;5.60;100.00;100471.06;5012687;28;20030;-73
2023/11/17 05:20:44;;;;;;;9.70;4.25;;;;;;;5.75;100.00;100480.44;5011832;28;20451;-73
2023/11/17 05:23:12;;;;;;;8.32;4.38;;;;;;;5.83;100.00;100479.16;5012544;28;20022;-71
2023/11/17 05:25:42;;;;;;;8.48;4.55;;;;;;;5.89;100.00;100464.13;5010156;28;20037;-73
2023/11/17 05:28:10;;;;;;;8.82;4.55;;;;;;;5.94;100.00;100466.97;5012521;28;20033;-73
2023/11/17 05:30:37;;;;;;;9.15;4.70;;;;;;;6.04;100.00;100464.13;5013464;28;20030;-72
2023/11/17 05:33:03;;;;;;;8.65;4.20;;;;;;;6.13;100.00;100451.84;5022172;28;20033;-74
2023/11/17 05:35:29;;;;;;;10.52;4.57;;;;;;;6.04;100.00;100442.75;5022972;28;20049;-76
2023/11/17 05:37:56;;;;;;;8.38;4.00;;;;;;;6.04;100.00;100455.56;5021341;28;20034;-75
2023/11/17 05:40:21;;;;;;;9.63;4.50;;;;;;;5.89;100.00;100447.88;5022228;28;20022;-73
2023/11/17 05:42:47;;;;;;;13.85;4.80;;;;;;;5.66;100.00;100379.22;5022724;28;20381;-74
2023/11/17 05:45:12;;;;;;;7.20;4.30;;;;;;;6.23;100.00;100460.91;5011743;28;20030;-74
2023/11/17 05:47:39;;;;;;;14.52;4.22;;;;;;;5.97;100.00;100414.19;5012077;28;20033;-74
2023/11/17 05:50:07;;;;;;;7.28;4.10;;;;;;;6.14;100.00;100445.91;5012548;28;20030;-76
2023/11/17 05:52:34;;;;;;;12.55;6.13;;;;;;;6.03;100.00;100398.31;5013494;28;20048;-75
2023/11/17 05:55:03;;;;;;;11.02;4.68;;;;;;;6.25;100.00;100443.03;5030040;28;20034;-73
2023/11/17 05:57:28;;;;;;;10.93;4.33;;;;;;;6.09;100.00;100406.34;5046370;28;20125;-73
2023/11/17 05:59:56;;;;;;;12.70;4.63;;;;;;;6.28;100.00;100436.41;5032254;28;20104;-74
2023/11/17 06:02:22;;;;;;;11.18;4.90;;;;;;;6.20;100.00;100435.09;5032683;28;20025;-73
2023/11/17 06:04:47;;;;;;;14.18;5.53;;;;;;;6.12;100.00;100432.13;5032400;28;20732;-74
2023/11/17 06:07:13;;;;;;;11.70;4.88;;;;;;;6.13;100.00;100417.59;5032235;28;20472;-73
2023/11/17 06:09:38;;;;;;;11.88;4.90;;;;;;;6.02;100.00;100432.44;5032070;28;20032;-74
2023/11/17 06:12:05;;;;;;;8.38;4.10;;;;;;;6.03;100.00;100439.31;5032010;28;20030;-73
2023/11/17 06:14:31;;;;;;;6.57;4.47;;;;;;;5.93;100.00;100424.19;5031705;28;20038;-74
2023/11/17 06:17:04;;;;;;;9.63;4.72;;;;;;;5.50;100.00;100397.09;5032104;28;20084;-73
2023/11/17 06:19:30;;;;;;;8.88;5.05;;;;;;;5.83;100.00;100427.91;5031923;28;20479;-73
2023/11/17 06:21:56;;;;;;;7.45;4.30;;;;;;;5.40;100.00;100356.41;5031905;28;20491;-73
2023/11/17 06:24:22;;;;;;;7.07;4.72;;;;;;;5.70;100.00;100422.94;5015745;28;20038;-73
2023/11/17 06:26:47;;;;;;;12.60;5.32;;;;;;;5.73;100.00;100402.59;5011709;28;20041;-73
2023/11/17 06:29:13;;;;;;;20.10;6.35;;;;;;;5.73;100.00;100421.44;5007779;28;20095;-74
2023/11/17 06:31:44;;;;;;;8.68;4.97;;;;;;;5.77;100.00;100407.09;5008639;28;20029;-75
2023/11/17 06:34:10;;;;;;;8.80;4.63;;;;;;;5.64;100.00;100382.47;5010520;28;20034;-75
2023/11/17 06:36:44;;;;;;;7.95;4.80;;;;;;;5.83;100.00;100417.66;5011452;28;20484;-74
2023/11/17 06:39:18;;;;;;;8.45;4.57;;;;;;;5.74;100.00;100358.25;5010646;28;20101;-72
2023/11/17 06:41:51;;;;;;;8.15;4.40;;;;;;;5.95;100.00;100376.47;5010869;28;20124;-72
2023/11/17 06:44:21;;;;;;;9.70;5.30;;;;;;;6.14;100.00;100379.28;5010541;28;20451;-73
2023/11/17 06:46:47;;;;;;;10.05;5.05;;;;;;;6.16;100.00;100371.66;5011124;28;20045;-76
2023/11/17 06:49:19;;;;;;;10.40;4.80;;;;;;;6.17;100.00;100354.56;5010774;28;20022;-78
2023/11/17 06:51:57;;;;;;;10.93;6.80;;;;;;;6.41;100.00;100385.78;5010016;28;20574;-76
2023/11/17 06:54:24;;;;;;;9.32;4.75;;;;;;;6.47;100.00;100393.78;5010339;28;20463;-75
2023/11/17 06:56:50;;;;;;;7.00;4.47;;;;;;;6.19;100.00;100343.59;5010583;28;20424;-77
2023/11/17 06:59:17;;;;;;;8.35;4.50;;;;;;;6.15;100.00;100322.06;5010531;28;20480;-73
2023/11/17 07:01:46;;;;;;;8.27;5.53;;;;;;;6.53;100.00;100363.31;5010720;28;20034;-74
2023/11/17 07:04:12;;;;;;;7.95;5.53;;;;;;;6.58;100.00;100343.03;5010655;28;20033;-76
2023/11/17 07:06:41;;;;;;;12.88;6.40;;;;;;;6.22;100.00;100268.53;5010667;28;20095;-75
2023/11/17 07:09:23;;;;;;;8.32;4.88;;;;;;;6.46;100.00;100294.56;5010217;28;20142;-74
2023/11/17 07:11:54;;;;;;;9.27;4.57;;;;;;;6.60;100.00;100298.72;5002885;28;20550;-78
2023/11/17 07:14:20;;;;;;;8.00;4.65;;;;;;;6.81;100.00;100331.34;5010110;28;20499;-74
2023/11/17 07:16:46;;;;;;;13.45;6.63;;;;;;;7.15;100.00;100375.78;5009702;28;20061;-74
2023/11/17 07:19:16;;;;;;;111.93;53.53;;;;;;;7.23;100.00;100380.50;5010358;28;20029;-74
2023/11/17 07:21:42;;;;;;;56.80;24.25;;;;;;;7.32;100.00;100376.63;5010285;28;20492;-74
2023/11/17 07:24:10;;;;;;;17.88;10.32;;;;;;;7.26;100.00;100356.66;5009384;28;20112;-79
2023/11/17 07:26:37;;;;;;;27.55;13.07;;;;;;;7.41;100.00;100354.84;5010493;28;20088;-72
2023/11/17 07:29:03;;;;;;;52.47;22.33;;;;;;;7.28;100.00;100312.25;5009624;28;21896;-74
2023/11/17 07:31:29;;;;;;;25.15;10.63;;;;;;;7.50;100.00;100338.97;5009550;28;20044;-78
2023/11/17 07:33:55;;;;;;;21.58;10.10;;;;;;;7.42;100.00;100315.47;5010338;28;20030;-74
2023/11/17 07:36:22;;;;;;;26.35;13.60;;;;;;;7.57;100.00;100320.44;5010046;28;20516;-74
2023/11/17 07:38:51;;;;;;;15.40;8.85;;;;;;;7.18;100.00;100232.16;5010020;28;20558;-73
2023/11/17 07:41:18;;;;;;;18.90;10.35;;;;;;;7.85;100.00;100318.28;5009747;28;20038;-73
2023/11/17 07:43:44;;;;;;;14.80;8.18;;;;;;;7.85;100.00;100331.13;5039552;28;20763;-74
2023/11/17 07:46:09;;;;;;;17.60;8.30;;;;;;;7.36;100.00;100247.53;5009453;28;20113;-75
2023/11/17 07:48:35;;;;;;;22.60;10.05;;;;;;;7.39;100.00;100246.00;5007373;28;20052;-74
2023/11/17 07:51:00;;;;;;;11.32;6.18;;;;;;;7.92;100.00;100334.06;5010054;28;20026;-73
2023/11/17 07:53:26;;;;;;;16.98;6.38;;;;;;;7.81;100.00;100324.09;5008802;28;20030;-73
2023/11/17 07:55:55;;;;;;;9.80;5.80;;;;;;;7.78;100.00;100314.56;5010012;28;20018;-73
2023/11/17 07:58:20;;;;;;;8.33;5.47;;;;;;;7.87;100.00;100332.09;5009341;28;20496;-72
2023/11/17 08:00:50;;;;;;;7.75;4.78;;;;;;;7.48;100.00;100260.06;5008875;28;20327;-73
2023/11/17 08:03:17;;;;;;;8.15;4.00;;;;;;;7.75;100.00;100325.56;5023030;28;20025;-72
2023/11/17 08:05:43;;;;;;;6.40;4.55;;;;;;;7.73;100.00;100326.31;5010477;28;20464;-74
2023/11/17 08:08:09;;;;;;;10.43;4.60;;;;;;;7.58;100.00;100300.78;5009801;28;20049;-79
2023/11/17 08:10:36;;;;;;;21.17;5.65;;;;;;;7.97;100.00;100359.09;5007642;28;20084;-75
2023/11/17 08:13:03;;;;;;;10.55;4.82;;;;;;;7.56;100.00;100266.44;5009541;28;20025;-74
2023/11/17 08:15:31;;;;;;;11.38;4.85;;;;;;;8.44;100.00;100357.75;5007314;28;20528;-73
2023/11/17 08:17:57;;;;;;;6.65;4.53;;;;;;;8.73;100.00;100340.13;5004685;28;20399;-73
2023/11/17 08:20:22;;;;;;;12.85;4.88;;;;;;;8.88;100.00;100338.22;5010382;28;20021;-74
2023/11/17 08:22:48;;;;;;;7.20;4.88;;;;;;;9.12;100.00;100342.63;5008367;28;20577;-73
2023/11/17 08:25:16;;;;;;;9.65;4.80;;;;;;;9.29;100.00;100314.94;5010516;28;20029;-75
2023/11/17 08:27:42;;;;;;;11.00;5.50;;;;;;;9.50;100.00;100309.75;5009216;28;20088;-74
2023/11/17 08:30:08;;;;;;;7.18;4.10;;;;;;;9.59;100.00;100306.66;5009611;28;20033;-75
2023/11/17 08:32:37;;;;;;;9.70;4.75;;;;;;;9.49;100.00;100253.00;5009891;28;20030;-73
2023/11/17 08:35:04;;;;;;;9.68;5.68;;;;;;;9.99;100.00;100302.13;5009715;28;20029;-75
2023/11/17 08:37:32;;;;;;;8.40;5.82;;;;;;;10.19;100.00;100313.16;5009567;28;20080;-75
2023/11/17 08:40:08;;;;;;;9.75;6.35;;;;;;;10.08;100.00;100305.03;5009699;28;20079;-74
2023/11/17 08:42:34;;;;;;;10.65;6.22;;;;;;;10.31;100.00;100303.25;5007962;28;20026;-76
2023/11/17 08:45:07;;;;;;;9.57;5.88;;;;;;;10.38;100.00;100301.84;5024984;28;20058;-74
2023/11/17 08:47:35;;;;;;;8.30;5.90;;;;;;;10.56;100.00;100280.06;5009936;28;20034;-80
2023/11/17 08:50:02;;;;;;;8.32;6.20;;;;;;;10.75;100.00;100266.91;5009728;28;20045;-73
2023/11/17 08:52:27;;;;;;;9.40;5.57;;;;;;;10.93;100.00;100276.09;5009757;28;20113;-74
2023/11/17 08:54:52;;;;;;;8.23;5.57;;;;;;;10.94;100.00;100268.41;5010105;28;20025;-74
2023/11/17 08:57:18;;;;;;;9.32;5.63;;;;;;;10.77;100.00;100231.69;5013169;28;20048;-74
2023/11/17 08:59:45;;;;;;;9.75;5.82;;;;;;;11.12;100.00;100267.25;5013645;28;20508;-73
2023/11/17 09:02:11;;;;;;;12.88;5.50;;;;;;;11.29;100.00;100262.56;5013442;28;20029;-73
2023/11/17 09:04:37;;;;;;;9.48;5.43;;;;;;;11.41;100.00;100265.53;5012986;28;20034;-73
2023/11/17 09:07:04;;;;;;;8.50;6.05;;;;;;;11.49;100.00;100256.31;5012805;28;20033;-74
2023/11/17 09:09:30;;;;;;;7.68;4.88;;;;;;;11.60;100.00;100255.75;5013306;28;20473;-74
2023/11/17 09:11:58;;;;;;;8.23;5.15;;;;;;;11.76;100.00;100252.78;5013348;28;20026;-74
2023/11/17 09:14:26;;;;;;;8.60;5.35;;;;;;;11.82;100.00;100237.44;5013356;28;20088;-74
2023/11/17 09:16:54;;;;;;;9.15;5.25;;;;;;;12.08;100.00;100251.97;5013244;28;20040;-74
2023/11/17 09:19:19;;;;;;;8.48;5.40;;;;;;;12.22;98.58;100252.31;5013108;28;20065;-72
2023/11/17 09:21:46;;;;;;;9.40;6.18;;;;;;;12.35;98.38;100241.47;5013110;28;20456;-78
2023/11/17 09:24:12;;;;;;;11.13;5.55;;;;;;;12.34;97.23;100239.72;5013189;28;20033;-74
2023/11/17 09:26:37;;;;;;;10.23;5.40;;;;;;;12.41;98.91;100226.09;5013263;28;20044;-73
2023/11/17 09:29:03;;;;;;;7.40;5.10;;;;;;;12.37;98.32;100198.34;5012965;28;20073;-74
2023/11/17 09:31:28;;;;;;;9.05;5.45;;;;;;;12.65;97.66;100222.38;5013109;28;20032;-77
2023/11/17 09:33:54;;;;;;;6.72;4.88;;;;;;;12.74;96.71;100214.81;5013143;28;20030;-74
2023/11/17 09:36:19;;;;;;;11.00;5.70;;;;;;;12.80;96.88;100206.31;5012985;28;20072;-72
2023/11/17 09:38:45;;;;;;;9.60;5.88;;;;;;;12.73;97.68;100213.03;5012927;28;20048;-73
2023/11/17 09:41:13;;;;;;;7.90;5.25;;;;;;;12.54;98.29;100179.78;5011651;28;20523;-73
2023/11/17 09:43:43;;;;;;;7.15;5.05;;;;;;;12.55;98.77;100192.78;5012769;28;20029;-73
2023/11/17 09:46:11;;;;;;;9.73;5.10;;;;;;;12.39;99.59;100188.06;5012583;28;20030;-74
2023/11/17 09:48:39;;;;;;;8.35;5.28;;;;;;;12.22;100.00;100165.19;5012498;28;20018;-75
2023/11/17 09:51:04;;;;;;;8.45;4.85;;;;;;;12.28;100.00;100152.41;5012574;28;20420;-76
2023/11/17 09:53:35;;;;;;;8.20;4.80;;;;;;;12.38;100.00;100153.50;5012616;28;20112;-73
2023/11/17 09:56:03;;;;;;;6.65;4.45;;;;;;;12.15;100.00;100114.16;5012584;28;20030;-74
2023/11/17 09:58:29;;;;;;;9.27;4.70;;;;;;;12.36;100.00;100131.91;5012445;28;20026;-73
2023/11/17 10:00:56;;;;;;;10.45;4.80;;;;;;;12.49;100.00;100130.47;5012608;28;20476;-73
2023/11/17 10:03:22;;;;;;;6.95;4.35;;;;;;;12.63;100.00;100133.38;5012106;28;20125;-75
2023/11/17 10:05:49;;;;;;;7.85;4.90;;;;;;;12.62;99.98;100114.41;5012510;28;20105;-72
2023/11/17 10:08:16;;;;;;;6.45;4.18;;;;;;;12.75;100.00;100128.50;5012078;28;20083;-73
2023/11/17 10:10:43;;;;;;;8.32;6.50;;;;;;;12.72;100.00;100120.66;5012357;28;20053;-73
2023/11/17 10:13:12;;;;;;;11.10;4.68;;;;;;;12.69;100.00;100117.13;5011996;28;20026;-72
2023/11/17 10:15:50;;;;;;;7.40;4.55;;;;;;;12.77;100.00;100119.03;5012148;28;20100;-76
2023/11/17 10:18:26;;;;;;;6.97;4.72;;;;;;;12.66;99.22;100088.56;5011528;28;20030;-74
2023/11/17 10:20:57;;;;;;;8.43;4.47;;;;;;;12.77;100.00;100095.72;5011591;28;20507;-73
2023/11/17 10:23:23;;;;;;;10.25;6.00;;;;;;;12.37;100.00;100011.97;5011183;28;20052;-74
2023/11/17 10:25:54;;;;;;;9.57;5.63;;;;;;;12.88;100.00;100087.31;5011651;28;20029;-77
2023/11/17 10:28:19;;;;;;;8.98;5.75;;;;;;;12.96;100.00;100093.53;5011165;28;20080;-74
2023/11/17 10:30:46;;;;;;;10.15;5.32;;;;;;;12.97;100.00;100073.66;5009242;28;20041;-74
2023/11/17 10:33:26;;;;;;;8.70;4.93;;;;;;;13.09;100.00;100087.75;5011295;28;20038;-72
2023/11/17 10:36:15;;;;;;;9.80;5.75;;;;;;;13.13;100.00;100086.09;5011912;28;20057;-74
2023/11/17 10:38:46;;;;;;;9.75;5.05;;;;;;;13.15;98.45;100086.16;5012013;28;20058;-72
2023/11/17 10:41:17;;;;;;;9.00;5.32;;;;;;;13.14;99.15;100080.06;5011887;28;20030;-72
2023/11/17 10:43:54;;;;;;;6.75;4.93;;;;;;;12.71;99.18;100004.94;5011868;28;20044;-73
2023/11/17 10:46:26;;;;;;;9.80;5.40;;;;;;;12.88;98.98;100045.84;5011498;28;20026;-72
2023/11/17 10:48:55;;;;;;;7.68;5.03;;;;;;;13.00;98.90;100066.84;5011627;28;20092;-73
2023/11/17 10:51:21;;;;;;;8.37;4.43;;;;;;;12.97;99.52;100050.34;5011949;28;20025;-77
2023/11/17 10:54:12;;;;;;;6.88;4.50;;;;;;;13.20;97.55;100068.97;5011731;28;20033;-73
2023/11/17 10:56:40;;;;;;;8.00;4.63;;;;;;;13.11;97.61;100047.19;5009325;28;20447;-75
2023/11/17 10:59:09;;;;;;;7.07;4.30;;;;;;;13.25;98.19;100063.00;5011327;28;20034;-75
2023/11/17 11:01:39;;;;;;;6.07;4.13;;;;;;;13.35;96.99;100066.66;5011262;28;20029;-73
2023/11/17 11:06:57;;;;;;;7.10;4.40;;;;;;;13.31;96.92;100046.72;5010853;28;20107;-74
2023/11/17 11:09:35;;;;;;;6.70;4.22;;;;;;;13.30;96.51;100050.16;5011203;28;20033;-71
2023/11/17 11:12:03;;;;;;;6.75;4.20;;;;;;;13.27;95.54;100035.41;5011154;28;20022;-73
2023/11/17 11:14:29;;;;;;;8.35;4.20;;;;;;;12.95;96.26;99973.47;5011312;28;20021;-72
2023/11/17 11:16:54;;;;;;;7.05;4.00;;;;;;;13.35;97.67;100022.59;5011486;28;20038;-73
2023/11/17 11:19:21;;;;;;;9.98;4.60;;;;;;;13.42;94.75;100018.41;5010535;28;20447;-73
2023/11/17 11:21:51;;;;;;;8.38;4.95;;;;;;;13.45;94.58;100010.69;5011097;28;20528;-71
2023/11/17 11:24:17;;;;;;;7.53;4.28;;;;;;;13.49;95.04;100003.84;5010443;28;20033;-73
2023/11/17 11:26:43;;;;;;;7.38;3.67;;;;;;;13.49;95.31;100015.09;5010756;28;20112;-73